createdAt,value
2022-11-24T00:01:48.489Z,7.40
2022-11-24T00:04:20.308Z,7.40
2022-11-24T00:06:49.605Z,7.40
2022-11-24T00:09:18.705Z,7.30
2022-11-24T00:11:47.899Z,7.20
2022-11-24T00:14:17.062Z,7.10
2022-11-24T00:16:46.334Z,7.10
2022-11-24T00:19:19.529Z,7.10
2022-11-24T00:21:49.165Z,7.10
2022-11-24T00:24:18.840Z,7.20
2022-11-24T00:26:48.110Z,7.30
2022-11-24T00:29:17.406Z,7.40
2022-11-24T00:31:46.646Z,7.40
2022-11-24T00:34:15.911Z,7.40
2022-11-24T00:36:45.114Z,7.40
2022-11-24T00:39:15.963Z,7.50
2022-11-24T00:41:45.394Z,7.40
2022-11-24T00:44:14.576Z,7.50
2022-11-24T00:46:43.852Z,7.50
2022-11-24T00:49:13.092Z,7.50
2022-11-24T00:51:42.557Z,7.50
2022-11-24T00:54:11.762Z,7.50
2022-11-24T00:56:40.881Z,7.40
2022-11-24T00:59:10.059Z,7.40
2022-11-24T01:01:39.345Z,7.50
2022-11-24T01:04:08.890Z,7.50
2022-11-24T01:06:38.086Z,7.50
2022-11-24T01:09:07.290Z,7.50
2022-11-24T01:11:54.801Z,7.50
2022-11-24T01:14:25.209Z,7.50
2022-11-24T01:16:55.135Z,7.50
2022-11-24T01:19:24.335Z,7.50
2022-11-24T01:21:53.532Z,7.50
2022-11-24T01:24:23.023Z,7.50
2022-11-24T01:26:52.340Z,7.50
2022-11-24T01:29:21.538Z,7.60
2022-11-24T01:31:50.731Z,7.60
2022-11-24T01:34:19.896Z,7.60
2022-11-24T01:36:49.108Z,7.60
2022-11-24T01:39:18.362Z,7.60
2022-11-24T01:41:47.757Z,7.60
2022-11-24T01:44:28.150Z,7.60
2022-11-24T01:47:00.345Z,7.50
2022-11-24T01:49:38.548Z,7.40
2022-11-24T01:52:15.423Z,7.40
2022-11-24T01:54:53.063Z,7.40
2022-11-24T01:57:26.388Z,7.40
2022-11-24T02:00:01.903Z,7.40
2022-11-24T02:02:44.929Z,7.40
2022-11-24T02:05:19.800Z,7.40
2022-11-24T02:07:50.019Z,7.40
2022-11-24T02:10:19.428Z,7.40
2022-11-24T02:12:51.551Z,7.40
2022-11-24T02:15:21.312Z,7.40
2022-11-24T02:17:50.443Z,7.40
2022-11-24T02:20:20.013Z,7.40
2022-11-24T02:22:56.512Z,7.40
2022-11-24T02:25:31.648Z,7.50
2022-11-24T02:28:05.533Z,7.50
2022-11-24T02:30:35.914Z,7.50
2022-11-24T02:33:05.314Z,7.50
2022-11-24T02:35:34.759Z,7.50
2022-11-24T02:38:03.928Z,7.50
2022-11-24T02:40:33.471Z,7.50
2022-11-24T02:43:09.409Z,7.50
2022-11-24T02:45:38.766Z,7.50
2022-11-24T02:48:08.433Z,7.50
2022-11-24T02:50:37.860Z,7.50
2022-11-24T02:53:07.141Z,7.50
2022-11-24T02:55:36.284Z,7.50
2022-11-24T02:58:05.487Z,7.50
2022-11-24T03:00:34.681Z,7.50
2022-11-24T03:03:04.161Z,7.50
2022-11-24T03:05:33.420Z,7.50
2022-11-24T03:08:02.764Z,7.50
2022-11-24T03:10:31.972Z,7.50
2022-11-24T03:13:01.156Z,7.50
2022-11-24T03:15:30.587Z,7.50
2022-11-24T03:17:59.850Z,7.50
2022-11-24T03:20:29.261Z,7.50
2022-11-24T03:22:58.459Z,7.40
2022-11-24T03:25:27.568Z,7.40
2022-11-24T03:27:58.484Z,7.40
2022-11-24T03:30:27.794Z,7.40
2022-11-24T03:32:56.924Z,7.30
2022-11-24T03:35:26.219Z,7.40
2022-11-24T03:37:55.336Z,7.30
2022-11-24T03:40:24.567Z,7.30
2022-11-24T03:42:53.687Z,7.30
2022-11-24T03:48:12.126Z,7.30
2022-11-24T03:50:41.372Z,7.30
2022-11-24T03:53:10.987Z,7.30
2022-11-24T03:55:40.151Z,7.20
2022-11-24T03:58:09.261Z,7.20
2022-11-24T04:00:38.438Z,7.20
2022-11-24T04:03:07.743Z,7.10
2022-11-24T04:05:37.522Z,7.10
2022-11-24T04:08:07.184Z,7.10
2022-11-24T04:10:37.855Z,7.20
2022-11-24T04:13:16.330Z,7.20
2022-11-24T04:15:46.035Z,7.20
2022-11-24T04:18:15.424Z,7.20
2022-11-24T04:20:44.793Z,7.20
2022-11-24T04:23:14.161Z,7.20
2022-11-24T04:25:43.831Z,7.20
2022-11-24T04:28:14.368Z,7.20
2022-11-24T04:30:45.121Z,7.20
2022-11-24T04:33:14.676Z,7.20
2022-11-24T04:35:43.839Z,7.20
2022-11-24T04:38:13.003Z,7.20
2022-11-24T04:41:05.782Z,7.20
2022-11-24T04:43:40.291Z,7.20
2022-11-24T04:46:11.768Z,7.20
2022-11-24T04:48:42.299Z,7.20
2022-11-24T04:51:13.663Z,7.20
2022-11-24T04:53:42.888Z,7.20
2022-11-24T04:56:11.996Z,7.10
2022-11-24T04:58:41.233Z,7.10
2022-11-24T05:01:10.381Z,7.20
2022-11-24T05:03:40.275Z,7.20
2022-11-24T05:06:09.673Z,7.20
2022-11-24T05:08:38.881Z,7.20
2022-11-24T05:11:08.276Z,7.20
2022-11-24T05:13:37.437Z,7.20
2022-11-24T05:16:06.928Z,7.10
2022-11-24T05:18:36.085Z,7.10
2022-11-24T05:21:05.243Z,7.10
2022-11-24T05:23:34.449Z,7.20
2022-11-24T05:26:04.224Z,7.20
2022-11-24T05:28:33.683Z,7.30
2022-11-24T05:31:03.700Z,7.30
2022-11-24T05:33:33.551Z,7.30
2022-11-24T05:36:05.257Z,7.30
2022-11-24T05:38:35.536Z,7.30
2022-11-24T05:41:05.990Z,7.30
2022-11-24T05:43:35.117Z,7.30
2022-11-24T05:46:04.242Z,7.20
2022-11-24T05:48:33.386Z,7.20
2022-11-24T05:51:07.898Z,7.20
2022-11-24T05:53:38.365Z,7.20
2022-11-24T05:56:07.830Z,7.10
2022-11-24T05:58:36.982Z,7.10
2022-11-24T06:01:07.486Z,7.10
2022-11-24T06:03:36.615Z,7.10
2022-11-24T06:06:05.859Z,7.00
2022-11-24T06:08:35.235Z,6.90
2022-11-24T06:11:17.604Z,6.80
2022-11-24T06:13:48.727Z,6.70
2022-11-24T06:16:18.247Z,6.70
2022-11-24T06:18:47.396Z,6.60
2022-11-24T06:21:17.315Z,6.70
2022-11-24T06:23:49.623Z,6.70
2022-11-24T06:26:18.761Z,6.70
2022-11-24T06:28:47.897Z,6.70
2022-11-24T06:31:17.092Z,6.70
2022-11-24T06:33:47.077Z,6.70
2022-11-24T06:36:16.534Z,6.70
2022-11-24T06:38:45.724Z,6.80
2022-11-24T06:41:16.467Z,6.80
2022-11-24T06:43:46.355Z,6.70
2022-11-24T06:46:15.591Z,6.70
2022-11-24T06:48:44.807Z,6.80
2022-11-24T06:51:14.206Z,6.80
2022-11-24T06:53:43.343Z,6.90
2022-11-24T06:56:19.493Z,6.90
2022-11-24T06:58:50.591Z,7.00
2022-11-24T07:01:24.858Z,7.00
2022-11-24T07:03:55.209Z,7.00
2022-11-24T07:06:26.363Z,6.90
2022-11-24T07:08:56.522Z,6.90
2022-11-24T07:11:25.746Z,6.90
2022-11-24T07:13:59.696Z,7.00
2022-11-24T07:16:29.680Z,7.10
2022-11-24T07:18:59.181Z,7.10
2022-11-24T07:21:30.621Z,7.10
2022-11-24T07:23:59.774Z,7.20
2022-11-24T07:26:28.924Z,7.30
2022-11-24T07:28:59.976Z,7.30
2022-11-24T07:31:29.167Z,7.30
2022-11-24T07:33:58.300Z,7.50
2022-11-24T07:36:27.537Z,7.60
2022-11-24T07:38:56.702Z,7.50
2022-11-24T07:41:25.830Z,7.50
2022-11-24T07:43:55.691Z,7.50
2022-11-24T07:46:24.962Z,7.50
2022-11-24T07:48:54.137Z,7.60
2022-11-24T07:51:23.278Z,7.50
2022-11-24T07:53:52.446Z,7.60
2022-11-24T07:56:21.547Z,7.60
2022-11-24T07:58:53.124Z,7.60
2022-11-24T08:01:23.011Z,7.60
2022-11-24T08:03:52.280Z,7.70
2022-11-24T08:06:26.231Z,7.80
2022-11-24T08:08:58.133Z,7.80
2022-11-24T08:11:28.147Z,7.90
2022-11-24T08:13:57.381Z,7.80
2022-11-24T08:16:26.543Z,7.90
2022-11-24T08:18:56.188Z,7.90
2022-11-24T08:21:25.906Z,8.00
2022-11-24T08:23:56.251Z,8.20
2022-11-24T08:26:26.152Z,8.40
2022-11-24T08:28:57.745Z,8.60
2022-11-24T08:31:33.661Z,8.70
2022-11-24T08:34:04.103Z,8.80
2022-11-24T08:36:34.052Z,8.70
2022-11-24T08:39:03.439Z,8.60
2022-11-24T08:41:33.313Z,8.60
2022-11-24T08:44:02.467Z,8.60
2022-11-24T08:46:31.698Z,8.80
2022-11-24T08:49:00.885Z,8.70
2022-11-24T08:51:30.120Z,8.70
2022-11-24T08:54:01.319Z,8.80
2022-11-24T08:56:32.352Z,8.90
2022-11-24T08:59:02.473Z,9.00
2022-11-24T09:01:31.936Z,9.10
2022-11-24T09:06:27.854Z,9.20
2022-11-24T09:08:57.746Z,9.20
2022-11-24T09:11:27.808Z,9.30
2022-11-24T09:13:57.051Z,9.50
2022-11-24T09:16:29.073Z,9.50
2022-11-24T09:19:01.162Z,9.60
2022-11-24T09:21:32.041Z,9.60
2022-11-24T09:24:01.235Z,9.70
2022-11-24T09:26:32.569Z,9.70
2022-11-24T09:29:04.880Z,9.70
2022-11-24T09:31:37.312Z,9.80
2022-11-24T09:34:09.148Z,9.80
2022-11-24T09:36:38.388Z,9.90
2022-11-24T09:39:07.971Z,9.70
2022-11-24T09:41:50.504Z,9.80
2022-11-24T09:44:37.915Z,9.80
2022-11-24T09:47:21.738Z,9.80
2022-11-24T09:50:10.055Z,10.00
2022-11-24T09:53:05.978Z,9.90
2022-11-24T09:55:35.352Z,10.20
2022-11-24T09:58:41.369Z,10.20
2022-11-24T10:01:17.165Z,10.20
2022-11-24T10:03:51.122Z,10.40
2022-11-24T10:06:24.801Z,10.80
2022-11-24T10:09:29.354Z,11.00
2022-11-24T10:12:13.735Z,11.40
2022-11-24T10:15:30.913Z,11.80
2022-11-24T10:18:28.059Z,12.10
2022-11-24T10:21:04.932Z,12.10
2022-11-24T10:23:53.075Z,12.10
2022-11-24T10:26:37.195Z,12.10
2022-11-24T10:29:12.371Z,12.00
2022-11-24T10:31:44.652Z,11.90
2022-11-24T10:34:19.116Z,11.80
2022-11-24T10:36:57.836Z,11.70
2022-11-24T10:39:29.752Z,11.50
2022-11-24T10:42:29.320Z,11.40
2022-11-24T10:45:02.114Z,11.20
2022-11-24T10:47:32.672Z,11.20
2022-11-24T10:50:20.341Z,11.20
2022-11-24T10:52:58.219Z,11.30
2022-11-24T10:55:56.706Z,11.40
2022-11-24T10:58:28.779Z,11.40
2022-11-24T11:01:18.395Z,11.40
2022-11-24T11:03:55.990Z,11.30
2022-11-24T11:06:26.210Z,11.30
2022-11-24T11:09:07.542Z,11.20
2022-11-24T11:11:39.336Z,11.20
2022-11-24T11:14:11.211Z,11.10
2022-11-24T11:16:51.159Z,11.00
2022-11-24T11:19:54.127Z,11.10
2022-11-24T11:22:35.685Z,11.00
2022-11-24T11:25:10.158Z,10.90
2022-11-24T11:27:41.049Z,10.90
2022-11-24T11:36:15.918Z,10.80
2022-11-24T11:38:47.165Z,11.10
2022-11-24T11:41:28.458Z,11.40
2022-11-24T11:44:07.320Z,11.40
2022-11-24T11:46:37.090Z,11.40
2022-11-24T11:49:09.964Z,11.60
2022-11-24T11:55:30.207Z,11.90
2022-11-24T11:58:33.444Z,11.80
2022-11-24T12:01:14.592Z,11.70
2022-11-24T12:03:49.827Z,11.40
2022-11-24T12:06:44.092Z,11.10
2022-11-24T12:09:41.595Z,10.70
2022-11-24T12:12:34.448Z,10.30
2022-11-24T12:15:15.151Z,10.10
2022-11-24T12:17:55.114Z,10.10
2022-11-24T12:20:52.863Z,10.00
2022-11-24T12:23:22.036Z,10.10
2022-11-24T12:26:01.720Z,9.90
2022-11-24T12:28:52.373Z,9.70
2022-11-24T12:31:33.883Z,9.60
2022-11-24T12:34:24.261Z,9.50
2022-11-24T12:37:28.804Z,9.40
2022-11-24T12:40:11.051Z,9.30
2022-11-24T12:42:59.144Z,9.10
2022-11-24T12:45:51.891Z,9.00
2022-11-24T12:48:23.734Z,8.90
2022-11-24T12:50:56.029Z,8.90
2022-11-24T12:53:34.826Z,8.90
2022-11-24T12:56:16.422Z,9.00
2022-11-24T12:58:55.666Z,8.90
2022-11-24T13:01:41.036Z,8.90
2022-11-24T13:04:38.217Z,8.90
2022-11-24T13:07:16.565Z,8.80
2022-11-24T13:10:46.973Z,8.60
2022-11-24T13:13:16.704Z,8.60
2022-11-24T13:16:34.794Z,8.50
2022-11-24T13:18:55.939Z,8.50
2022-11-24T13:21:31.193Z,8.50
2022-11-24T13:24:03.854Z,8.50
2022-11-24T13:26:41.664Z,8.40
2022-11-24T13:29:33.194Z,8.40
2022-11-24T13:32:02.386Z,8.40
2022-11-24T13:34:40.613Z,8.40
2022-11-24T13:37:33.599Z,8.40
2022-11-24T13:40:14.364Z,8.40
2022-11-24T13:42:58.888Z,8.40
2022-11-24T13:45:41.047Z,8.30
2022-11-24T13:48:19.943Z,8.30
2022-11-24T13:50:53.336Z,8.20
2022-11-24T13:53:22.425Z,8.20
2022-11-24T13:55:58.881Z,8.20
2022-11-24T13:58:36.934Z,8.10
2022-11-24T14:01:09.094Z,8.00
2022-11-24T14:04:32.516Z,7.90
2022-11-24T14:07:09.559Z,7.90
2022-11-24T14:09:45.594Z,7.80
2022-11-24T14:12:17.335Z,7.80
2022-11-24T14:14:48.594Z,7.80
2022-11-24T14:17:28.563Z,7.70
2022-11-24T14:19:58.504Z,7.70
2022-11-24T14:22:35.956Z,7.70
2022-11-24T14:25:06.063Z,7.60
2022-11-24T14:27:38.936Z,7.60
2022-11-24T14:30:08.330Z,7.60
2022-11-24T14:32:40.334Z,7.60
2022-11-24T14:35:23.458Z,7.60
2022-11-24T14:37:52.797Z,7.50
2022-11-24T14:40:37.742Z,7.40
2022-11-24T14:43:16.940Z,7.40
2022-11-24T14:46:09.415Z,7.30
2022-11-24T14:48:46.879Z,7.30
2022-11-24T14:51:24.948Z,7.30
2022-11-24T14:53:57.867Z,7.30
2022-11-24T14:56:28.251Z,7.30
2022-11-24T14:58:59.234Z,7.20
2022-11-24T15:01:30.329Z,7.30
2022-11-24T15:07:27.202Z,7.10
2022-11-24T15:09:59.010Z,7.10
2022-11-24T15:12:34.431Z,7.10
2022-11-24T15:15:23.474Z,7.10
2022-11-24T15:18:00.620Z,7.10
2022-11-24T15:20:36.206Z,7.10
2022-11-24T15:23:23.018Z,7.00
2022-11-24T15:25:54.381Z,7.00
2022-11-24T15:28:26.162Z,7.00
2022-11-24T15:30:59.434Z,6.90
2022-11-24T15:33:29.432Z,6.90
2022-11-24T15:35:59.809Z,6.80
2022-11-24T15:38:29.029Z,6.80
2022-11-24T15:41:00.157Z,6.70
2022-11-24T15:43:32.135Z,6.70
2022-11-24T15:46:02.689Z,6.70
2022-11-24T15:48:32.086Z,6.60
2022-11-24T15:51:13.002Z,6.60
2022-11-24T15:53:53.318Z,6.60
2022-11-24T15:56:31.559Z,6.60
2022-11-24T15:59:01.567Z,6.50
2022-11-24T16:01:32.760Z,6.60
2022-11-24T16:04:02.799Z,6.60
2022-11-24T16:06:31.920Z,6.50
2022-11-24T16:09:01.528Z,6.50
2022-11-24T16:11:30.735Z,6.50
2022-11-24T16:13:59.864Z,6.50
2022-11-24T16:16:29.089Z,6.50
2022-11-24T16:18:58.359Z,6.40
2022-11-24T16:21:27.893Z,6.40
2022-11-24T16:23:57.136Z,6.40
2022-11-24T16:26:26.436Z,6.40
2022-11-24T16:28:55.630Z,6.40
2022-11-24T16:31:24.840Z,6.40
2022-11-24T16:33:53.974Z,6.30
2022-11-24T16:36:23.342Z,6.30
2022-11-24T16:38:52.473Z,6.30
2022-11-24T16:41:21.912Z,6.30
2022-11-24T16:43:51.264Z,6.30
2022-11-24T16:46:22.296Z,6.30
2022-11-24T16:48:53.823Z,6.20
2022-11-24T16:51:23.876Z,6.20
2022-11-24T16:54:00.268Z,6.20
2022-11-24T16:56:30.227Z,6.20
2022-11-24T16:58:59.308Z,6.20
2022-11-24T17:01:29.867Z,6.20
2022-11-24T17:03:59.786Z,6.20
2022-11-24T17:06:28.935Z,6.10
2022-11-24T17:08:58.158Z,6.10
2022-11-24T17:11:28.323Z,6.10
2022-11-24T17:14:01.050Z,6.10
2022-11-24T17:16:30.740Z,6.10
2022-11-24T17:19:00.037Z,6.10
2022-11-24T17:21:29.264Z,6.00
2022-11-24T17:24:06.824Z,6.10
2022-11-24T17:26:36.011Z,6.10
2022-11-24T17:29:05.158Z,6.10
2022-11-24T17:31:39.983Z,6.10
2022-11-24T17:34:11.407Z,6.00
2022-11-24T17:36:41.878Z,6.00
2022-11-24T17:39:11.218Z,6.00
2022-11-24T17:41:40.491Z,6.00
2022-11-24T17:44:10.744Z,6.10
2022-11-24T17:46:39.983Z,6.00
2022-11-24T17:49:13.115Z,6.00
2022-11-24T17:51:42.372Z,6.00
2022-11-24T17:54:44.755Z,6.00
2022-11-24T17:57:00.773Z,6.00
2022-11-24T17:59:29.973Z,6.10
2022-11-24T18:01:59.190Z,6.10
2022-11-24T18:04:28.440Z,6.00
2022-11-24T18:06:57.532Z,6.10
2022-11-24T18:09:26.656Z,6.10
2022-11-24T18:11:56.112Z,6.10
2022-11-24T18:14:25.185Z,6.10
2022-11-24T18:16:54.411Z,6.10
2022-11-24T18:19:23.682Z,6.20
2022-11-24T18:21:52.769Z,6.20
2022-11-24T18:24:24.239Z,6.20
2022-11-24T18:26:53.598Z,6.10
2022-11-24T18:29:22.824Z,6.10
2022-11-24T18:31:52.136Z,6.10
2022-11-24T18:34:24.758Z,6.20
2022-11-24T18:36:53.889Z,6.20
2022-11-24T18:39:23.037Z,6.20
2022-11-24T18:41:52.159Z,6.10
2022-11-24T18:44:21.327Z,6.10
2022-11-24T18:46:50.568Z,6.10
2022-11-24T18:49:19.745Z,6.00
2022-11-24T18:51:48.945Z,6.10
2022-11-24T18:54:18.144Z,6.00
2022-11-24T18:56:47.316Z,6.00
2022-11-24T18:59:16.421Z,6.00
2022-11-24T19:01:46.316Z,6.00
2022-11-24T19:04:15.623Z,5.90
2022-11-24T19:06:44.835Z,5.90
2022-11-24T19:09:16.487Z,5.90
2022-11-24T19:11:46.848Z,5.90
2022-11-24T19:14:17.914Z,5.80
2022-11-24T19:16:50.533Z,5.80
2022-11-24T19:19:19.836Z,5.80
2022-11-24T19:21:49.173Z,5.80
2022-11-24T19:24:18.339Z,5.80
2022-11-24T19:26:47.541Z,5.80
2022-11-24T19:29:16.660Z,5.80
2022-11-24T19:31:46.260Z,5.80
2022-11-24T19:34:15.814Z,5.80
2022-11-24T19:36:44.973Z,5.80
2022-11-24T19:39:15.556Z,5.80
2022-11-24T19:41:44.722Z,5.80
2022-11-24T19:44:14.238Z,5.80
2022-11-24T19:46:43.369Z,5.70
2022-11-24T19:49:12.456Z,5.80
2022-11-24T19:51:41.637Z,5.80
2022-11-24T19:54:13.279Z,5.80
2022-11-24T19:56:42.504Z,5.70
2022-11-24T19:59:13.452Z,5.80
2022-11-24T20:01:42.752Z,5.70
2022-11-24T20:04:15.033Z,5.80
2022-11-24T20:06:46.305Z,5.80
2022-11-24T20:09:17.380Z,5.80
2022-11-24T20:11:46.991Z,5.80
2022-11-24T20:14:19.102Z,5.80
2022-11-24T20:16:48.480Z,5.70
2022-11-24T20:19:18.459Z,5.70
2022-11-24T20:21:49.421Z,5.70
2022-11-24T20:24:21.903Z,5.70
2022-11-24T20:26:54.692Z,5.70
2022-11-24T20:29:24.167Z,5.70
2022-11-24T20:31:55.122Z,5.60
2022-11-24T20:34:25.101Z,5.60
2022-11-24T20:36:54.406Z,5.60
2022-11-24T20:39:26.621Z,5.60
2022-11-24T20:41:56.176Z,5.60
2022-11-24T20:44:27.385Z,5.60
2022-11-24T20:46:58.251Z,5.50
2022-11-24T20:49:28.156Z,5.50
2022-11-24T20:51:57.554Z,5.40
2022-11-24T20:54:26.818Z,5.40
2022-11-24T20:56:56.007Z,5.30
2022-11-24T20:59:25.840Z,5.20
2022-11-24T21:01:55.641Z,5.20
2022-11-24T21:04:26.871Z,5.20
2022-11-24T21:06:56.545Z,5.20
2022-11-24T21:09:27.229Z,5.10
2022-11-24T21:11:56.440Z,5.10
2022-11-24T21:14:25.652Z,5.00
2022-11-24T21:16:54.851Z,5.00
2022-11-24T21:19:24.047Z,5.00
2022-11-24T21:21:53.155Z,5.00
2022-11-24T21:24:22.362Z,4.90
2022-11-24T21:26:52.920Z,4.80
2022-11-24T21:29:25.643Z,4.80
2022-11-24T21:31:55.025Z,4.70
2022-11-24T21:34:24.191Z,4.70
2022-11-24T21:36:53.260Z,4.60
2022-11-24T21:39:22.491Z,4.60
2022-11-24T21:41:51.651Z,4.60
2022-11-24T21:44:20.850Z,4.60
2022-11-24T21:46:55.707Z,4.60
2022-11-24T21:49:25.159Z,4.60
2022-11-24T21:51:55.987Z,4.60
2022-11-24T21:54:25.468Z,4.50
2022-11-24T21:56:54.562Z,4.50
2022-11-24T21:59:23.743Z,4.50
2022-11-24T22:01:52.924Z,4.40
2022-11-24T22:04:22.310Z,4.40
2022-11-24T22:06:53.198Z,4.40
2022-11-24T22:09:22.374Z,4.40
2022-11-24T22:11:53.117Z,4.40
2022-11-24T22:14:22.268Z,4.40
2022-11-24T22:16:51.463Z,4.30
2022-11-24T22:19:20.677Z,4.30
2022-11-24T22:21:50.040Z,4.30
2022-11-24T22:24:24.285Z,4.20
2022-11-24T22:26:56.334Z,4.20
2022-11-24T22:29:25.629Z,4.20
2022-11-24T22:31:54.841Z,4.10
2022-11-24T22:34:23.969Z,4.00
2022-11-24T22:36:53.231Z,4.00
2022-11-24T22:39:22.391Z,3.90
2022-11-24T22:41:51.623Z,3.80
2022-11-24T22:44:20.770Z,3.80
2022-11-24T22:46:49.898Z,3.80
2022-11-24T22:49:19.091Z,3.70
2022-11-24T22:51:48.184Z,3.80
2022-11-24T22:54:17.387Z,3.90
2022-11-24T22:56:46.512Z,3.90
2022-11-24T22:59:15.732Z,3.90
2022-11-24T23:01:44.989Z,4.00
2022-11-24T23:04:14.275Z,4.00
2022-11-24T23:06:43.508Z,4.00
2022-11-24T23:09:12.897Z,4.10
2022-11-24T23:11:42.034Z,4.10
2022-11-24T23:14:14.148Z,4.10
2022-11-24T23:16:43.851Z,4.20
2022-11-24T23:19:13.090Z,4.10
2022-11-24T23:21:42.262Z,4.10
2022-11-24T23:24:11.663Z,4.10
2022-11-24T23:26:41.466Z,4.10
2022-11-24T23:29:11.696Z,4.00
2022-11-24T23:31:40.946Z,4.00
2022-11-24T23:34:10.414Z,4.00
2022-11-24T23:36:39.582Z,4.00
2022-11-24T23:39:13.100Z,3.90
2022-11-24T23:41:42.430Z,3.90
2022-11-24T23:44:11.566Z,3.90
2022-11-24T23:46:40.706Z,3.90
2022-11-24T23:49:10.039Z,3.80
2022-11-24T23:51:42.099Z,3.70
2022-11-24T23:56:58.348Z,3.80
2022-11-24T23:59:27.515Z,3.80
